createdAt,value
2023-05-10T00:02:07.088Z,12.71
2023-05-10T00:04:41.940Z,12.72
2023-05-10T00:07:14.345Z,12.72
2023-05-10T00:09:46.756Z,12.70
2023-05-10T00:12:18.932Z,12.69
2023-05-10T00:14:51.089Z,12.68
2023-05-10T00:17:23.340Z,12.68
2023-05-10T00:19:58.687Z,12.65
2023-05-10T00:22:30.960Z,12.59
2023-05-10T00:25:03.341Z,12.61
2023-05-10T00:27:35.741Z,12.63
2023-05-10T00:30:08.689Z,12.63
2023-05-10T00:32:40.915Z,12.64
2023-05-10T00:35:15.981Z,12.64
2023-05-10T00:37:48.237Z,12.65
2023-05-10T00:40:20.598Z,12.66
2023-05-10T00:42:52.867Z,12.68
2023-05-10T00:45:25.398Z,12.69
2023-05-10T00:47:57.973Z,12.69
2023-05-10T00:50:33.336Z,12.70
2023-05-10T00:53:07.408Z,12.71
2023-05-10T00:55:39.926Z,12.71
2023-05-10T00:58:12.229Z,12.71
2023-05-10T01:00:47.585Z,12.71
2023-05-10T01:03:20.044Z,12.71
2023-05-10T01:05:55.175Z,12.71
2023-05-10T01:08:27.726Z,12.71
2023-05-10T01:11:00.447Z,12.72
2023-05-10T01:13:39.085Z,12.72
2023-05-10T01:16:12.934Z,12.72
2023-05-10T01:18:46.932Z,12.71
2023-05-10T01:21:35.013Z,12.71
2023-05-10T01:24:37.509Z,12.72
2023-05-10T01:27:39.532Z,12.72
2023-05-10T01:30:50.614Z,12.73
2023-05-10T01:33:31.902Z,12.74
2023-05-10T01:36:13.672Z,12.74
2023-05-10T01:38:52.287Z,12.75
2023-05-10T01:41:35.237Z,12.76
2023-05-10T01:44:19.319Z,12.76
2023-05-10T01:47:01.641Z,12.76
2023-05-10T01:49:44.615Z,12.76
2023-05-10T01:52:21.907Z,12.77
2023-05-10T01:55:00.370Z,12.77
2023-05-10T01:57:40.489Z,12.78
2023-05-10T02:00:16.394Z,12.79
2023-05-10T02:02:53.356Z,12.79
2023-05-10T02:05:31.318Z,12.80
2023-05-10T02:08:05.324Z,12.79
2023-05-10T02:10:39.087Z,12.78
2023-05-10T02:13:14.983Z,12.77
2023-05-10T02:15:52.021Z,12.76
2023-05-10T02:18:24.592Z,12.75
2023-05-10T02:21:02.540Z,12.69
2023-05-10T02:23:36.637Z,12.68
2023-05-10T02:26:11.206Z,12.69
2023-05-10T02:28:47.231Z,12.69
2023-05-10T02:31:21.243Z,12.71
2023-05-10T02:33:55.494Z,12.71
2023-05-10T02:36:32.614Z,12.70
2023-05-10T02:39:10.701Z,12.68
2023-05-10T02:41:46.888Z,12.68
2023-05-10T02:44:23.353Z,12.67
2023-05-10T02:46:57.144Z,12.66
2023-05-10T02:49:29.464Z,12.65
2023-05-10T02:52:10.246Z,12.64
2023-05-10T02:54:50.223Z,12.64
2023-05-10T02:57:27.214Z,12.62
2023-05-10T03:00:01.400Z,12.58
2023-05-10T03:02:34.083Z,12.54
2023-05-10T03:05:06.839Z,12.49
2023-05-10T03:07:42.127Z,12.45
2023-05-10T03:10:15.751Z,12.40
2023-05-10T03:13:04.983Z,12.35
2023-05-10T03:15:48.368Z,12.30
2023-05-10T03:18:27.312Z,12.27
2023-05-10T03:21:06.352Z,12.24
2023-05-10T03:23:51.043Z,12.23
2023-05-10T03:26:29.356Z,12.23
2023-05-10T03:29:03.537Z,12.23
2023-05-10T03:31:36.400Z,12.22
2023-05-10T03:34:08.663Z,12.22
2023-05-10T03:36:41.036Z,12.23
2023-05-10T03:39:16.068Z,12.22
2023-05-10T03:41:48.281Z,12.22
2023-05-10T03:44:20.554Z,12.22
2023-05-10T03:46:53.129Z,12.22
2023-05-10T03:49:25.417Z,12.23
2023-05-10T03:51:57.720Z,12.24
2023-05-10T03:54:33.351Z,12.25
2023-05-10T03:57:06.288Z,12.26
2023-05-10T03:59:38.499Z,12.26
2023-05-10T04:02:10.722Z,12.28
2023-05-10T04:04:43.021Z,12.28
2023-05-10T04:07:15.418Z,12.29
2023-05-10T04:09:50.165Z,12.31
2023-05-10T04:12:22.367Z,12.32
2023-05-10T04:14:54.554Z,12.33
2023-05-10T04:17:26.793Z,12.34
2023-05-10T04:19:59.506Z,12.32
2023-05-10T04:22:31.702Z,12.26
2023-05-10T04:25:06.760Z,12.28
2023-05-10T04:27:39.048Z,12.29
2023-05-10T04:30:12.911Z,12.29
2023-05-10T04:32:45.179Z,12.30
2023-05-10T04:35:17.841Z,12.30
2023-05-10T04:37:50.019Z,12.32
2023-05-10T04:40:24.800Z,12.34
2023-05-10T04:42:56.965Z,12.34
2023-05-10T04:45:29.392Z,12.36
2023-05-10T04:48:01.578Z,12.37
2023-05-10T04:50:33.789Z,12.38
2023-05-10T04:53:05.945Z,12.39
2023-05-10T04:55:41.201Z,12.39
2023-05-10T04:58:13.461Z,12.41
2023-05-10T05:00:45.700Z,12.42
2023-05-10T05:03:17.986Z,12.42
2023-05-10T05:05:50.381Z,12.44
2023-05-10T05:08:22.610Z,12.46
2023-05-10T05:10:57.369Z,12.48
2023-05-10T05:13:29.690Z,12.51
2023-05-10T05:16:02.534Z,12.55
2023-05-10T05:18:34.889Z,12.59
2023-05-10T05:21:07.195Z,12.64
2023-05-10T05:23:39.411Z,12.67
2023-05-10T05:26:16.113Z,12.70
2023-05-10T05:28:49.879Z,12.73
2023-05-10T05:31:22.114Z,12.73
2023-05-10T05:33:54.344Z,12.74
2023-05-10T05:36:27.457Z,12.76
2023-05-10T05:38:59.709Z,12.78
2023-05-10T05:41:34.574Z,12.79
2023-05-10T05:44:06.879Z,12.80
2023-05-10T05:46:39.385Z,12.81
2023-05-10T05:49:11.558Z,12.81
2023-05-10T05:51:44.220Z,12.82
2023-05-10T05:54:16.459Z,12.84
2023-05-10T05:56:51.636Z,12.84
2023-05-10T05:59:23.951Z,12.84
2023-05-10T06:01:56.585Z,12.84
2023-05-10T06:04:29.052Z,12.83
2023-05-10T06:07:01.452Z,12.82
2023-05-10T06:09:33.646Z,12.80
2023-05-10T06:12:08.713Z,12.79
2023-05-10T06:14:40.953Z,12.78
2023-05-10T06:17:13.385Z,12.77
2023-05-10T06:19:45.627Z,12.74
2023-05-10T06:22:17.781Z,12.61
2023-05-10T06:24:49.989Z,12.59
2023-05-10T06:27:25.650Z,12.59
2023-05-10T06:30:11.831Z,12.60
2023-05-10T06:32:45.108Z,12.61
2023-05-10T06:35:18.914Z,12.64
2023-05-10T06:37:51.227Z,12.69
2023-05-10T06:40:23.709Z,12.75
2023-05-10T06:42:58.652Z,12.79
2023-05-10T06:45:31.162Z,12.83
2023-05-10T06:48:03.806Z,12.86
2023-05-10T06:50:36.063Z,12.89
2023-05-10T06:53:08.727Z,12.93
2023-05-10T06:55:41.197Z,12.95
2023-05-10T06:58:16.036Z,12.95
2023-05-10T07:00:48.579Z,12.96
2023-05-10T07:03:20.806Z,12.98
2023-05-10T07:05:53.278Z,13.01
2023-05-10T07:08:25.872Z,13.04
2023-05-10T07:10:58.127Z,13.06
2023-05-10T07:13:33.114Z,13.08
2023-05-10T07:16:07.558Z,13.12
2023-05-10T07:18:39.870Z,13.18
2023-05-10T07:21:12.165Z,13.23
2023-05-10T07:23:45.212Z,13.26
2023-05-10T07:26:17.948Z,13.28
2023-05-10T07:28:52.781Z,13.29
2023-05-10T07:31:25.141Z,13.29
2023-05-10T07:33:57.558Z,13.29
2023-05-10T07:36:30.018Z,13.30
2023-05-10T07:39:02.361Z,13.33
2023-05-10T07:41:35.834Z,13.39
2023-05-10T07:44:11.773Z,13.46
2023-05-10T07:46:44.167Z,13.55
2023-05-10T07:49:16.411Z,13.63
2023-05-10T07:51:48.612Z,13.74
2023-05-10T07:54:20.860Z,13.82
2023-05-10T07:56:53.422Z,13.89
2023-05-10T07:59:28.253Z,13.96
2023-05-10T08:02:00.513Z,14.02
2023-05-10T08:04:32.802Z,14.05
2023-05-10T08:07:05.157Z,14.04
2023-05-10T08:09:37.389Z,14.02
2023-05-10T08:12:10.510Z,13.98
2023-05-10T08:14:45.275Z,13.95
2023-05-10T08:17:19.687Z,13.91
2023-05-10T08:19:52.266Z,13.88
2023-05-10T08:22:24.469Z,13.71
2023-05-10T08:24:56.972Z,13.72
2023-05-10T08:27:29.175Z,13.75
2023-05-10T08:30:03.985Z,13.79
2023-05-10T08:32:36.284Z,13.84
2023-05-10T08:35:09.043Z,13.92
2023-05-10T08:37:41.250Z,13.97
2023-05-10T08:40:16.360Z,14.01
2023-05-10T08:42:56.151Z,14.03
2023-05-10T08:45:37.021Z,14.06
2023-05-10T08:48:11.954Z,14.14
2023-05-10T08:50:45.824Z,14.21
2023-05-10T08:53:19.909Z,14.25
2023-05-10T08:55:52.974Z,14.28
2023-05-10T08:58:25.632Z,14.31
2023-05-10T09:01:02.127Z,14.36
2023-05-10T09:03:34.752Z,14.44
2023-05-10T09:06:08.071Z,14.55
2023-05-10T09:08:42.811Z,14.70
2023-05-10T09:11:16.815Z,14.91
2023-05-10T09:13:50.930Z,15.08
2023-05-10T09:16:26.464Z,15.22
2023-05-10T09:18:58.695Z,15.38
2023-05-10T09:21:31.835Z,15.57
2023-05-10T09:24:08.912Z,15.79
2023-05-10T09:26:52.501Z,16.00
2023-05-10T09:29:24.825Z,16.26
2023-05-10T09:31:59.609Z,16.54
2023-05-10T09:34:36.828Z,16.70
2023-05-10T09:37:09.301Z,16.94
2023-05-10T09:39:42.560Z,17.13
2023-05-10T09:42:15.520Z,17.27
2023-05-10T09:44:47.731Z,17.41
2023-05-10T09:47:26.066Z,17.53
2023-05-10T09:50:04.035Z,17.63
2023-05-10T09:52:50.287Z,17.73
2023-05-10T09:55:24.750Z,17.76
2023-05-10T09:58:07.968Z,17.77
2023-05-10T10:00:41.686Z,17.75
2023-05-10T10:03:21.406Z,17.66
2023-05-10T10:05:56.834Z,17.53
2023-05-10T10:08:29.951Z,17.40
2023-05-10T10:11:02.576Z,17.27
2023-05-10T10:13:36.017Z,17.16
2023-05-10T10:16:09.329Z,17.09
2023-05-10T10:18:44.476Z,17.06
2023-05-10T10:21:19.898Z,17.01
2023-05-10T10:23:52.216Z,17.02
2023-05-10T10:26:29.867Z,17.06
2023-05-10T10:29:15.238Z,17.13
2023-05-10T10:31:54.810Z,17.18
2023-05-10T10:34:32.823Z,17.18
2023-05-10T10:37:10.827Z,17.17
2023-05-10T10:39:43.015Z,17.17
2023-05-10T10:42:15.239Z,17.12
2023-05-10T10:44:47.381Z,17.10
2023-05-10T10:47:31.177Z,17.11
2023-05-10T10:50:14.161Z,17.16
2023-05-10T10:52:47.416Z,17.18
2023-05-10T10:55:23.623Z,17.20
2023-05-10T10:58:01.978Z,17.18
2023-05-10T11:00:36.007Z,17.18
2023-05-10T11:03:11.816Z,17.21
2023-05-10T11:05:48.102Z,17.23
2023-05-10T11:08:23.283Z,17.23
2023-05-10T11:11:08.317Z,17.20
2023-05-10T11:13:45.494Z,17.15
2023-05-10T11:16:21.660Z,17.10
2023-05-10T11:19:04.834Z,17.09
2023-05-10T11:21:50.904Z,17.08
2023-05-10T11:24:24.797Z,17.07
2023-05-10T11:26:58.238Z,17.09
2023-05-10T11:29:30.480Z,17.19
2023-05-10T11:32:05.624Z,17.33
2023-05-10T11:34:37.850Z,17.58
2023-05-10T11:37:13.812Z,17.88
2023-05-10T11:39:51.634Z,18.27
2023-05-10T11:42:23.965Z,18.62
2023-05-10T11:44:56.207Z,18.89
2023-05-10T11:47:28.569Z,19.13
2023-05-10T11:50:01.966Z,19.27
2023-05-10T11:52:41.180Z,19.33
2023-05-10T11:55:14.037Z,19.36
2023-05-10T11:57:47.133Z,19.26
2023-05-10T12:00:20.209Z,19.07
2023-05-10T12:02:53.229Z,18.86
2023-05-10T12:05:26.440Z,18.70
2023-05-10T12:08:16.570Z,18.61
2023-05-10T12:10:48.739Z,18.55
2023-05-10T12:13:21.749Z,18.52
2023-05-10T12:15:54.037Z,18.55
2023-05-10T12:18:29.194Z,18.63
2023-05-10T12:21:09.047Z,18.70
2023-05-10T12:23:44.326Z,18.81
2023-05-10T12:26:16.847Z,19.02
2023-05-10T12:28:49.190Z,19.17
2023-05-10T12:31:21.880Z,19.32
2023-05-10T12:33:54.063Z,19.46
2023-05-10T12:36:29.080Z,19.57
2023-05-10T12:39:08.615Z,19.72
2023-05-10T12:41:43.371Z,19.88
2023-05-10T12:44:15.897Z,20.06
2023-05-10T12:46:49.079Z,20.39
2023-05-10T12:49:21.297Z,20.66
2023-05-10T12:51:53.452Z,20.88
2023-05-10T12:54:29.019Z,21.03
2023-05-10T12:57:01.244Z,21.03
2023-05-10T12:59:34.289Z,20.93
2023-05-10T13:02:08.081Z,20.70
2023-05-10T13:04:41.260Z,20.36
2023-05-10T13:07:14.051Z,20.13
2023-05-10T13:09:48.829Z,19.86
2023-05-10T13:12:20.984Z,19.58
2023-05-10T13:14:53.164Z,19.22
2023-05-10T13:17:25.380Z,18.69
2023-05-10T13:19:57.531Z,18.18
2023-05-10T13:22:39.890Z,17.70
2023-05-10T13:25:16.201Z,17.22
2023-05-10T13:27:48.460Z,16.74
2023-05-10T13:30:21.651Z,16.17
2023-05-10T13:32:53.850Z,15.49
2023-05-10T13:35:26.604Z,14.60
2023-05-10T13:37:59.429Z,13.83
2023-05-10T13:40:34.456Z,13.50
2023-05-10T13:43:06.629Z,13.29
2023-05-10T13:45:38.841Z,13.20
2023-05-10T13:48:11.123Z,13.15
2023-05-10T13:50:43.278Z,13.14
2023-05-10T13:53:15.514Z,13.15
2023-05-10T13:55:50.345Z,13.14
2023-05-10T13:58:22.621Z,13.15
2023-05-10T14:00:54.792Z,13.15
2023-05-10T14:03:27.030Z,13.13
2023-05-10T14:05:59.453Z,13.10
2023-05-10T14:08:31.629Z,13.08
2023-05-10T14:11:06.475Z,13.08
2023-05-10T14:13:38.694Z,13.08
2023-05-10T14:16:12.628Z,13.08
2023-05-10T14:18:44.882Z,13.08
2023-05-10T14:21:17.126Z,13.03
2023-05-10T14:23:49.316Z,13.00
2023-05-10T14:26:24.135Z,13.03
2023-05-10T14:28:56.356Z,13.07
2023-05-10T14:31:28.639Z,13.15
2023-05-10T14:34:00.941Z,13.21
2023-05-10T14:36:33.557Z,13.28
2023-05-10T14:39:06.242Z,13.34
2023-05-10T14:41:42.096Z,13.39
2023-05-10T14:44:14.281Z,13.43
2023-05-10T14:46:46.439Z,13.47
2023-05-10T14:49:18.555Z,13.53
2023-05-10T14:51:50.744Z,13.60
2023-05-10T14:54:22.926Z,13.65
2023-05-10T14:56:57.886Z,13.71
2023-05-10T14:59:30.075Z,13.78
2023-05-10T15:02:02.789Z,13.87
2023-05-10T15:04:35.630Z,13.96
2023-05-10T15:07:08.470Z,14.04
2023-05-10T15:09:40.636Z,14.13
2023-05-10T15:12:15.450Z,14.25
2023-05-10T15:14:47.634Z,14.40
2023-05-10T15:17:20.069Z,14.54
2023-05-10T15:19:52.434Z,14.69
2023-05-10T15:22:25.157Z,14.85
2023-05-10T15:24:57.340Z,15.00
2023-05-10T15:27:32.171Z,15.13
2023-05-10T15:30:04.572Z,15.23
2023-05-10T15:32:36.893Z,15.29
2023-05-10T15:35:10.524Z,15.36
2023-05-10T15:37:42.808Z,15.42
2023-05-10T15:40:15.927Z,15.48
2023-05-10T15:42:50.754Z,15.53
2023-05-10T15:45:23.842Z,15.56
2023-05-10T15:47:56.187Z,15.58
2023-05-10T15:50:28.327Z,15.63
2023-05-10T15:53:00.656Z,15.66
2023-05-10T15:55:33.107Z,15.69
2023-05-10T15:58:07.935Z,15.72
2023-05-10T16:00:40.167Z,15.73
2023-05-10T16:03:12.775Z,15.74
2023-05-10T16:05:45.087Z,15.74
2023-05-10T16:08:17.381Z,15.74
2023-05-10T16:10:49.738Z,15.72
2023-05-10T16:13:24.567Z,15.71
2023-05-10T16:15:57.794Z,15.70
2023-05-10T16:18:30.126Z,15.69
2023-05-10T16:21:04.030Z,15.68
2023-05-10T16:23:36.912Z,15.65
2023-05-10T16:26:09.318Z,15.70
2023-05-10T16:28:44.113Z,15.75
2023-05-10T16:31:16.368Z,15.77
2023-05-10T16:33:48.729Z,15.80
2023-05-10T16:36:21.094Z,15.81
2023-05-10T16:38:53.262Z,15.84
2023-05-10T16:41:26.617Z,15.90
2023-05-10T16:44:01.747Z,16.01
2023-05-10T16:46:34.088Z,16.32
2023-05-10T16:49:06.320Z,16.93
2023-05-10T16:51:38.471Z,17.41
2023-05-10T16:54:10.838Z,18.73
2023-05-10T16:56:43.275Z,21.99
2023-05-10T16:59:18.057Z,23.63
2023-05-10T17:01:50.313Z,24.35
2023-05-10T17:04:22.613Z,24.20
2023-05-10T17:06:54.963Z,25.09
2023-05-10T17:09:27.151Z,25.80
2023-05-10T17:11:59.293Z,26.21
2023-05-10T17:14:34.125Z,26.23
2023-05-10T17:17:06.986Z,26.21
2023-05-10T17:19:39.296Z,26.09
2023-05-10T17:22:12.049Z,25.93
2023-05-10T17:24:44.308Z,25.46
2023-05-10T17:27:16.753Z,23.86
2023-05-10T17:29:51.677Z,22.13
2023-05-10T17:32:23.977Z,21.36
2023-05-10T17:34:56.220Z,21.34
2023-05-10T17:37:28.530Z,21.32
2023-05-10T17:40:00.701Z,21.34
2023-05-10T17:42:32.823Z,21.41
2023-05-10T17:45:07.979Z,21.39
2023-05-10T17:47:40.254Z,21.17
2023-05-10T17:50:13.949Z,20.73
2023-05-10T17:52:46.687Z,20.20
2023-05-10T17:55:19.507Z,19.82
2023-05-10T17:57:52.029Z,19.39
2023-05-10T18:00:27.248Z,18.92
2023-05-10T18:03:01.996Z,18.58
2023-05-10T18:05:34.429Z,18.34
2023-05-10T18:08:07.486Z,18.08
2023-05-10T18:10:41.741Z,17.81
2023-05-10T18:13:13.961Z,17.55
2023-05-10T18:15:49.154Z,17.37
2023-05-10T18:18:21.752Z,17.24
2023-05-10T18:20:57.814Z,17.08
2023-05-10T18:23:30.599Z,16.84
2023-05-10T18:26:02.946Z,16.71
2023-05-10T18:28:35.340Z,16.57
2023-05-10T18:31:10.369Z,16.45
2023-05-10T18:33:42.510Z,16.33
2023-05-10T18:36:14.988Z,16.22
2023-05-10T18:38:47.342Z,16.11
2023-05-10T18:41:19.621Z,16.00
2023-05-10T18:43:51.849Z,15.90
2023-05-10T18:46:27.426Z,15.84
2023-05-10T18:49:00.195Z,15.77
2023-05-10T18:51:32.487Z,15.71
2023-05-10T18:54:04.653Z,15.64
2023-05-10T18:56:36.771Z,15.58
2023-05-10T18:59:09.024Z,15.49
2023-05-10T19:01:45.082Z,15.41
2023-05-10T19:04:17.353Z,15.34
2023-05-10T19:06:49.841Z,15.27
2023-05-10T19:09:22.200Z,15.21
2023-05-10T19:11:55.486Z,15.17
2023-05-10T19:14:27.961Z,15.13
2023-05-10T19:17:03.401Z,15.08
2023-05-10T19:19:36.474Z,15.04
2023-05-10T19:22:08.646Z,15.00
2023-05-10T19:24:40.906Z,14.93
2023-05-10T19:27:13.277Z,14.88
2023-05-10T19:29:45.612Z,14.85
2023-05-10T19:32:20.481Z,14.80
2023-05-10T19:34:52.741Z,14.73
2023-05-10T19:37:24.963Z,14.69
2023-05-10T19:39:57.192Z,14.67
2023-05-10T19:42:29.426Z,14.62
2023-05-10T19:45:01.707Z,14.59
2023-05-10T19:47:37.210Z,14.55
2023-05-10T19:50:12.626Z,14.53
2023-05-10T19:52:45.003Z,14.49
2023-05-10T19:55:30.747Z,14.45
2023-05-10T19:58:03.833Z,14.40
2023-05-10T20:00:36.073Z,14.36
2023-05-10T20:03:11.361Z,14.32
2023-05-10T20:05:43.886Z,14.27
2023-05-10T20:08:16.414Z,14.22
2023-05-10T20:10:48.790Z,14.18
2023-05-10T20:13:21.037Z,14.14
2023-05-10T20:15:53.254Z,14.09
2023-05-10T20:18:28.138Z,14.04
2023-05-10T20:21:01.724Z,13.96
2023-05-10T20:23:33.984Z,13.83
2023-05-10T20:26:06.283Z,13.83
2023-05-10T20:28:38.553Z,13.86
2023-05-10T20:31:10.919Z,13.87
2023-05-10T20:33:45.809Z,13.88
2023-05-10T20:36:18.203Z,13.92
2023-05-10T20:38:50.635Z,13.95
2023-05-10T20:41:22.927Z,13.98
2023-05-10T20:43:55.041Z,13.98
2023-05-10T20:46:27.690Z,13.97
2023-05-10T20:49:02.714Z,13.97
2023-05-10T20:51:34.957Z,13.96
2023-05-10T20:54:07.231Z,13.96
2023-05-10T20:56:39.454Z,13.97
2023-05-10T20:59:11.758Z,13.98
2023-05-10T21:01:44.016Z,13.99
2023-05-10T21:04:18.808Z,13.99
2023-05-10T21:06:51.210Z,13.99
2023-05-10T21:09:23.420Z,13.98
2023-05-10T21:11:55.803Z,13.98
2023-05-10T21:14:28.013Z,13.98
2023-05-10T21:17:00.327Z,13.97
2023-05-10T21:19:35.128Z,13.95
2023-05-10T21:22:07.960Z,13.93
2023-05-10T21:24:40.212Z,13.91
2023-05-10T21:27:12.484Z,13.90
2023-05-10T21:29:44.675Z,13.89
2023-05-10T21:32:17.476Z,13.89
2023-05-10T21:34:52.398Z,13.91
2023-05-10T21:37:24.663Z,13.90
2023-05-10T21:39:56.908Z,13.88
2023-05-10T21:42:29.061Z,13.86
2023-05-10T21:45:01.435Z,13.82
2023-05-10T21:47:33.626Z,13.78
2023-05-10T21:50:10.207Z,13.76
2023-05-10T21:52:43.252Z,13.74
2023-05-10T21:55:15.561Z,13.68
2023-05-10T21:57:47.919Z,13.62
2023-05-10T22:00:21.109Z,13.57
2023-05-10T22:02:53.446Z,13.54
2023-05-10T22:05:28.454Z,13.50
2023-05-10T22:08:00.758Z,13.46
2023-05-10T22:10:33.022Z,13.44
2023-05-10T22:13:05.451Z,13.41
2023-05-10T22:15:37.788Z,13.39
2023-05-10T22:18:10.187Z,13.37
2023-05-10T22:20:45.032Z,13.35
2023-05-10T22:23:17.225Z,13.21
2023-05-10T22:25:49.570Z,13.23
2023-05-10T22:28:21.777Z,13.26
2023-05-10T22:30:54.028Z,13.28
2023-05-10T22:33:26.272Z,13.29
2023-05-10T22:36:01.191Z,13.31
2023-05-10T22:38:33.415Z,13.30
2023-05-10T22:41:05.605Z,13.29
2023-05-10T22:43:37.843Z,13.27
2023-05-10T22:46:10.234Z,13.26
2023-05-10T22:48:42.416Z,13.25
2023-05-10T22:51:17.245Z,13.25
2023-05-10T22:53:49.921Z,13.26
2023-05-10T22:56:22.826Z,13.27
2023-05-10T22:58:55.759Z,13.28
2023-05-10T23:01:28.127Z,13.29
2023-05-10T23:04:01.209Z,13.28
2023-05-10T23:06:36.252Z,13.28
2023-05-10T23:09:08.590Z,13.28
2023-05-10T23:11:41.001Z,13.28
2023-05-10T23:14:13.230Z,13.29
2023-05-10T23:16:45.955Z,13.28
2023-05-10T23:19:18.182Z,13.27
2023-05-10T23:21:53.637Z,13.25
2023-05-10T23:24:25.902Z,13.24
2023-05-10T23:26:58.351Z,13.24
2023-05-10T23:29:32.174Z,13.22
2023-05-10T23:32:04.427Z,13.19
2023-05-10T23:34:36.647Z,13.17
2023-05-10T23:37:11.613Z,13.15
2023-05-10T23:39:43.860Z,13.13
2023-05-10T23:42:16.019Z,13.12
2023-05-10T23:44:48.233Z,13.12
2023-05-10T23:47:20.643Z,13.12
2023-05-10T23:49:54.400Z,13.14
2023-05-10T23:52:29.857Z,13.15
2023-05-10T23:55:02.521Z,13.16
2023-05-10T23:57:34.739Z,13.17
